Time;durP1;ratioP1;P1;durP2;ratioP2;P2;SDS_P1;SDS_P2;PMS_P1;PMS_P2;Temp;Humidity;BMP_temperature;BMP_pressure;BME280_temperature;BME280_humidity;BME280_pressure;Samples;Min_cycle;Max_cycle;Signal;HPM_P1;HPM_P2
2022/09/03 21:18:00;;;;;;;20.42;13.93;;;;;;;;;;5068618;28;20794;-64
2022/09/03 21:20:39;;;;;;;24.35;13.27;;;;;;;;;;5068389;28;20052;-59
2022/09/03 21:23:19;;;;;;;17.13;12.95;;;;;;;;;;5068269;28;20025;-59
2022/09/03 21:25:50;;;;;;;18.38;14.32;;;;;;;;;;5069933;28;20029;-62
2022/09/03 21:28:26;;;;;;;20.90;13.68;;;;;;;;;;5068566;28;20045;-70
2022/09/03 21:30:56;;;;;;;19.48;13.35;;;;;;;;;;5068710;28;20081;-66
2022/09/03 21:33:31;;;;;;;15.75;13.80;;;;;;;;;;5068491;28;20025;-60
2022/09/03 21:36:03;;;;;;;19.77;13.93;;;;;;;;;;5068524;28;20498;-60
2022/09/03 21:38:32;;;;;;;21.52;16.45;;;;;;;;;;5068248;28;20504;-65
2022/09/03 21:41:14;;;;;;;19.83;16.27;;;;;;;;;;5067874;28;20052;-58
2022/09/03 21:43:46;;;;;;;22.92;16.85;;;;;;;;;;5068042;28;20376;-59
2022/09/03 21:46:27;;;;;;;22.88;15.57;;;;;;;;;;5068029;28;20090;-59
2022/09/03 21:48:56;;;;;;;30.80;16.60;;;;;;;;;;5068068;28;20040;-69
2022/09/03 21:51:41;;;;;;;20.98;15.82;;;;;;;;;;5068041;28;20063;-69
2022/09/03 21:54:13;;;;;;;21.73;16.17;;;;;;;;;;5067753;28;20167;-70
2022/09/03 21:56:51;;;;;;;20.77;16.27;;;;;;;;;;5068230;28;20028;-59
2022/09/03 21:59:20;;;;;;;22.15;15.95;;;;;;;;;;5067907;28;20060;-58
2022/09/03 22:01:55;;;;;;;19.42;16.23;;;;;;;;;;5067808;28;20099;-61
2022/09/03 22:04:21;;;;;;;27.20;16.63;;;;;;;;;;5067755;28;20473;-60
2022/09/03 22:06:47;;;;;;;21.75;15.60;;;;;;;;;;5067304;28;20029;-59
2022/09/03 22:09:20;;;;;;;23.63;17.40;;;;;;;;;;5067486;28;20135;-60
2022/09/03 22:11:52;;;;;;;22.77;17.48;;;;;;;;;;5067404;28;20512;-59
2022/09/03 22:14:20;;;;;;;24.33;18.30;;;;;;;;;;5067154;28;20032;-59
2022/09/03 22:16:55;;;;;;;24.83;18.25;;;;;;;;;;5066988;28;20048;-60
2022/09/03 22:19:22;;;;;;;23.98;18.83;;;;;;;;;;5067174;28;20025;-59
2022/09/03 22:21:57;;;;;;;29.48;21.63;;;;;;;;;;5067336;28;20021;-60
2022/09/03 22:24:27;;;;;;;30.85;20.38;;;;;;;;;;5065342;28;20440;-59
2022/09/03 22:26:56;;;;;;;26.05;21.98;;;;;;;;;;5065738;28;20047;-59
2022/09/03 22:29:22;;;;;;;29.35;22.45;;;;;;;;;;5053363;28;20021;-59
2022/09/03 22:31:54;;;;;;;29.30;22.70;;;;;;;;;;5053774;28;20028;-59
2022/09/03 22:34:25;;;;;;;30.58;23.02;;;;;;;;;;5054007;28;20032;-59
2022/09/03 22:36:55;;;;;;;30.38;25.85;;;;;;;;;;5053658;28;20033;-59
2022/09/03 22:39:42;;;;;;;30.83;24.70;;;;;;;;;;5053936;28;20033;-59
2022/09/03 22:42:14;;;;;;;31.25;23.67;;;;;;;;;;5053536;28;20115;-69
2022/09/03 22:44:53;;;;;;;30.02;24.30;;;;;;;;;;5053758;28;20025;-66
2022/09/03 22:47:36;;;;;;;39.42;25.67;;;;;;;;;;5053470;28;20036;-59
2022/09/03 22:50:03;;;;;;;29.35;23.67;;;;;;;;;;5053483;28;20025;-67
2022/09/03 22:52:43;;;;;;;32.97;25.15;;;;;;;;;;5053540;28;20033;-68
2022/09/03 22:55:21;;;;;;;33.38;24.42;;;;;;;;;;5053451;28;20119;-71
2022/09/03 22:57:59;;;;;;;30.48;24.90;;;;;;;;;;5053407;28;20107;-59
2022/09/03 23:00:28;;;;;;;33.85;25.33;;;;;;;;;;5053631;28;20035;-59
2022/09/03 23:03:07;;;;;;;33.47;25.63;;;;;;;;;;5053418;28;20104;-61
2022/09/03 23:05:38;;;;;;;33.38;26.77;;;;;;;;;;5053477;28;20388;-59
2022/09/03 23:08:10;;;;;;;33.05;27.08;;;;;;;;;;5053598;28;20028;-59
2022/09/03 23:10:52;;;;;;;33.58;27.88;;;;;;;;;;5053316;28;20025;-68
2022/09/03 23:13:21;;;;;;;33.85;26.83;;;;;;;;;;5053004;28;20128;-59
2022/09/03 23:15:53;;;;;;;31.35;23.65;;;;;;;;;;5052989;28;20378;-69
2022/09/03 23:18:25;;;;;;;30.05;24.75;;;;;;;;;;5052893;28;20036;-61
2022/09/03 23:20:54;;;;;;;;;;;;;;;;;;5053687;28;20025;-59
2022/09/03 23:23:22;;;;;;;32.17;25.63;;;;;;;;;;5053173;28;19909;-59
2022/09/03 23:25:54;;;;;;;36.10;25.95;;;;;;;;;;5052799;28;20086;-57
2022/09/03 23:28:23;;;;;;;34.90;27.05;;;;;;;;;;5052872;28;20036;-58
2022/09/03 23:30:50;;;;;;;32.85;26.35;;;;;;;;;;5052924;28;20048;-59
2022/09/03 23:33:16;;;;;;;34.80;27.90;;;;;;;;;;5052821;28;20044;-58
2022/09/03 23:35:55;;;;;;;33.08;26.88;;;;;;;;;;5052878;28;20480;-60
2022/09/03 23:38:39;;;;;;;36.60;27.60;;;;;;;;;;5052583;28;20021;-59
2022/09/03 23:41:11;;;;;;;35.50;27.35;;;;;;;;;;5052292;28;20029;-69
2022/09/03 23:43:55;;;;;;;45.08;29.10;;;;;;;;;;5052421;28;20025;-59
2022/09/03 23:46:27;;;;;;;38.67;28.33;;;;;;;;;;5052585;28;20068;-70
2022/09/03 23:49:03;;;;;;;37.28;28.27;;;;;;;;;;5052142;28;20502;-59
2022/09/03 23:51:29;;;;;;;38.13;29.60;;;;;;;;;;5052287;28;20072;-59
2022/09/03 23:54:14;;;;;;;35.38;28.58;;;;;;;;;;5051904;28;20017;-58
2022/09/03 23:56:40;;;;;;;39.83;28.35;;;;;;;;;;5052111;28;20029;-59
2022/09/03 23:59:18;;;;;;;33.15;27.55;;;;;;;;;;5052248;28;20021;-59
